createdAt,value
2018-07-05T00:00:04.738Z,20.63
2018-07-05T00:01:18.729Z,20.63
2018-07-05T00:02:32.710Z,20.63
2018-07-05T00:03:46.947Z,20.65
2018-07-05T00:05:01.941Z,20.68
2018-07-05T00:06:16.444Z,20.68
2018-07-05T00:07:30.676Z,20.67
2018-07-05T00:08:45.185Z,20.65
2018-07-05T00:09:59.166Z,20.64
2018-07-05T00:11:13.679Z,20.65
2018-07-05T00:12:28.488Z,20.63
2018-07-05T00:13:42.911Z,20.63
2018-07-05T00:14:56.886Z,20.62
2018-07-05T00:16:11.626Z,20.61
2018-07-05T00:17:26.402Z,20.61
2018-07-05T00:18:39.902Z,20.59
2018-07-05T00:19:54.101Z,20.58
2018-07-05T00:21:08.859Z,20.57
2018-07-05T00:22:23.579Z,20.56
2018-07-05T00:23:37.828Z,20.53
2018-07-05T00:24:52.812Z,20.52
2018-07-05T00:26:07.878Z,20.49
2018-07-05T00:27:22.369Z,20.48
2018-07-05T00:28:36.830Z,20.47
2018-07-05T00:29:52.116Z,20.46
2018-07-05T00:31:06.583Z,20.46
2018-07-05T00:32:20.592Z,20.48
2018-07-05T00:33:35.072Z,20.49
2018-07-05T00:34:49.532Z,20.49
2018-07-05T00:36:03.947Z,20.48
2018-07-05T00:37:18.153Z,20.48
2018-07-05T00:38:32.623Z,20.46
2018-07-05T00:39:47.365Z,20.46
2018-07-05T00:41:02.089Z,20.45
2018-07-05T00:42:17.086Z,20.45
2018-07-05T00:43:31.523Z,20.44
2018-07-05T00:44:46.036Z,20.45
2018-07-05T00:46:00.747Z,20.44
2018-07-05T00:47:15.331Z,20.43
2018-07-05T00:48:30.301Z,20.44
2018-07-05T00:49:44.752Z,20.47
2018-07-05T00:50:58.703Z,20.48
2018-07-05T00:52:12.917Z,20.47
2018-07-05T00:53:26.883Z,20.46
2018-07-05T00:54:41.604Z,20.46
2018-07-05T00:55:55.840Z,20.45
2018-07-05T00:57:10.850Z,20.44
2018-07-05T00:58:25.550Z,20.43
2018-07-05T00:59:39.785Z,20.42
2018-07-05T01:00:54.795Z,20.41
2018-07-05T01:02:08.978Z,20.4
2018-07-05T01:03:22.943Z,20.39
2018-07-05T01:04:37.454Z,20.39
2018-07-05T01:05:51.905Z,20.38
2018-07-05T01:07:07.153Z,20.36
2018-07-05T01:08:21.407Z,20.34
2018-07-05T01:09:35.360Z,20.33
2018-07-05T01:10:49.812Z,20.31
2018-07-05T01:12:04.027Z,20.29
2018-07-05T01:13:19.028Z,20.27
2018-07-05T01:14:33.184Z,20.25
2018-07-05T01:15:48.576Z,20.25
2018-07-05T01:17:02.897Z,20.22
2018-07-05T01:18:17.875Z,20.2
2018-07-05T01:19:33.140Z,20.2
2018-07-05T01:20:47.819Z,20.19
2018-07-05T01:22:02.036Z,20.17
2018-07-05T01:23:16.392Z,20.14
2018-07-05T01:24:31.282Z,20.13
2018-07-05T01:25:45.535Z,20.09
2018-07-05T01:27:00.247Z,20.05
2018-07-05T01:28:14.541Z,20.01
2018-07-05T01:29:28.724Z,19.95
2018-07-05T01:30:43.524Z,19.92
2018-07-05T01:31:58.333Z,19.9
2018-07-05T01:33:12.805Z,19.87
2018-07-05T01:34:27.263Z,19.84
2018-07-05T01:35:42.254Z,19.82
2018-07-05T01:36:57.009Z,19.79
2018-07-05T01:38:11.238Z,19.78
2018-07-05T01:39:26.168Z,19.75
2018-07-05T01:40:40.113Z,19.74
2018-07-05T01:41:54.294Z,19.73
2018-07-05T01:43:08.277Z,19.71
2018-07-05T01:44:22.950Z,19.71
2018-07-05T01:45:37.684Z,19.71
2018-07-05T01:46:51.597Z,19.71
2018-07-05T01:48:06.291Z,19.72
2018-07-05T01:49:21.058Z,19.73
2018-07-05T01:50:35.827Z,19.74
2018-07-05T01:51:50.732Z,19.77
2018-07-05T01:53:04.921Z,19.76
2018-07-05T01:54:19.341Z,19.78
2018-07-05T01:55:33.925Z,19.79
2018-07-05T01:56:48.656Z,19.8
2018-07-05T01:58:03.122Z,19.8
2018-07-05T01:59:17.466Z,19.8
2018-07-05T02:00:31.966Z,19.8
2018-07-05T02:01:46.795Z,19.81
2018-07-05T02:03:01.578Z,19.8
2018-07-05T02:04:16.759Z,19.78
2018-07-05T02:05:31.192Z,19.76
2018-07-05T02:06:45.669Z,19.75
2018-07-05T02:08:00.817Z,19.72
2018-07-05T02:09:15.669Z,19.7
2018-07-05T02:10:29.698Z,19.68
2018-07-05T02:11:43.917Z,19.65
2018-07-05T02:12:58.349Z,19.63
2018-07-05T02:14:13.095Z,19.6
2018-07-05T02:15:28.285Z,19.58
2018-07-05T02:16:42.219Z,19.56
2018-07-05T02:17:56.893Z,19.53
2018-07-05T02:19:10.853Z,19.52
2018-07-05T02:20:25.142Z,19.5
2018-07-05T02:21:40.128Z,19.48
2018-07-05T02:22:55.069Z,19.46
2018-07-05T02:24:09.792Z,19.42
2018-07-05T02:25:24.028Z,19.43
2018-07-05T02:26:38.634Z,19.41
2018-07-05T02:27:53.323Z,19.41
2018-07-05T02:29:08.189Z,19.39
2018-07-05T02:30:23.382Z,19.36
2018-07-05T02:31:37.371Z,19.34
2018-07-05T02:32:51.562Z,19.32
2018-07-05T02:34:06.103Z,19.29
2018-07-05T02:35:21.316Z,19.28
2018-07-05T02:36:35.032Z,19.26
2018-07-05T02:37:49.227Z,19.25
2018-07-05T02:39:03.698Z,19.24
2018-07-05T02:40:18.137Z,19.23
2018-07-05T02:41:32.761Z,19.23
2018-07-05T02:42:47.504Z,19.23
2018-07-05T02:44:01.717Z,19.22
2018-07-05T02:45:16.304Z,19.2
2018-07-05T02:46:30.938Z,19.2
2018-07-05T02:47:44.898Z,19.19
2018-07-05T02:48:59.645Z,19.18
2018-07-05T02:50:14.152Z,19.17
2018-07-05T02:51:28.537Z,19.16
2018-07-05T02:52:43.769Z,19.15
2018-07-05T02:53:58.229Z,19.15
2018-07-05T02:55:12.450Z,19.13
2018-07-05T02:56:27.102Z,19.12
2018-07-05T02:57:42.078Z,19.1
2018-07-05T02:58:56.830Z,19.09
2018-07-05T03:00:11.313Z,19.09
2018-07-05T03:01:25.860Z,19.1
2018-07-05T03:02:40.626Z,19.12
2018-07-05T03:03:55.068Z,19.13
2018-07-05T03:05:09.406Z,19.14
2018-07-05T03:06:23.149Z,19.15
2018-07-05T03:07:38.143Z,19.17
2018-07-05T03:08:52.480Z,19.17
2018-07-05T03:10:06.937Z,19.17
2018-07-05T03:11:21.698Z,19.18
2018-07-05T03:12:35.747Z,19.2
2018-07-05T03:13:50.693Z,19.21
2018-07-05T03:15:05.426Z,19.24
2018-07-05T03:16:20.139Z,19.23
2018-07-05T03:17:35.294Z,19.27
2018-07-05T03:18:50.280Z,19.29
2018-07-05T03:20:04.983Z,19.31
2018-07-05T03:21:19.909Z,19.33
2018-07-05T03:22:34.345Z,19.35
2018-07-05T03:23:48.679Z,19.37
2018-07-05T03:25:02.893Z,19.38
2018-07-05T03:26:17.793Z,19.4
2018-07-05T03:27:32.023Z,19.42
2018-07-05T03:28:46.220Z,19.45
2018-07-05T03:30:01.204Z,19.48
2018-07-05T03:31:15.743Z,19.5
2018-07-05T03:32:30.013Z,19.52
2018-07-05T03:33:44.253Z,19.54
2018-07-05T03:34:59.229Z,19.59
2018-07-05T03:36:20.553Z,19.62
2018-07-05T03:37:34.850Z,19.65
2018-07-05T03:38:49.325Z,19.68
2018-07-05T03:40:04.286Z,19.73
2018-07-05T03:41:18.245Z,19.75
2018-07-05T03:42:32.757Z,19.79
2018-07-05T03:43:47.473Z,19.83
2018-07-05T03:45:01.705Z,19.87
2018-07-05T03:46:16.695Z,19.9
2018-07-05T03:47:31.543Z,19.94
2018-07-05T03:48:46.480Z,19.98
2018-07-05T03:50:00.665Z,20.03
2018-07-05T03:51:15.113Z,20.09
2018-07-05T03:52:29.700Z,20.15
2018-07-05T03:53:43.938Z,20.22
2018-07-05T03:54:58.411Z,20.29
2018-07-05T03:56:12.903Z,20.33
2018-07-05T03:57:27.129Z,20.39
2018-07-05T03:58:42.257Z,20.45
2018-07-05T03:59:57.107Z,20.6
2018-07-05T04:01:11.880Z,20.92
2018-07-05T04:02:26.588Z,21.25
2018-07-05T04:03:41.563Z,21.45
2018-07-05T04:04:56.024Z,21.64
2018-07-05T04:06:10.490Z,21.84
2018-07-05T04:07:25.494Z,22.08
2018-07-05T04:08:39.978Z,22.36
2018-07-05T04:09:55.094Z,22.64
2018-07-05T04:11:09.572Z,23.04
2018-07-05T04:12:23.540Z,23.48
2018-07-05T04:13:38.960Z,23.91
2018-07-05T04:14:53.841Z,24.36
2018-07-05T04:16:08.588Z,24.84
2018-07-05T04:17:23.755Z,25.33
2018-07-05T04:18:38.283Z,25.85
2018-07-05T04:19:52.747Z,26.38
2018-07-05T04:21:07.263Z,26.85
2018-07-05T04:22:21.752Z,27.32
2018-07-05T04:23:36.677Z,27.79
2018-07-05T04:24:51.437Z,28.21
2018-07-05T04:26:05.798Z,28.61
2018-07-05T04:27:20.268Z,28.98
2018-07-05T04:28:34.506Z,29.36
2018-07-05T04:29:49.333Z,29.72
2018-07-05T04:31:03.853Z,30.09
2018-07-05T04:32:18.844Z,30.48
2018-07-05T04:33:32.995Z,30.86
2018-07-05T04:34:47.520Z,31.24
2018-07-05T04:36:01.775Z,31.59
2018-07-05T04:37:16.445Z,31.85
2018-07-05T04:38:31.619Z,32.12
2018-07-05T04:39:46.264Z,32.38
2018-07-05T04:41:00.004Z,32.65
2018-07-05T04:42:14.753Z,32.95
2018-07-05T04:43:29.699Z,33.2
2018-07-05T04:44:45.150Z,33.39
2018-07-05T04:45:59.669Z,33.24
2018-07-05T04:47:14.894Z,33.39
2018-07-05T04:48:28.850Z,33.69
2018-07-05T04:49:43.591Z,34.02
2018-07-05T04:50:58.421Z,34.31
2018-07-05T04:52:13.161Z,34.55
2018-07-05T04:53:28.467Z,34.85
2018-07-05T04:54:42.462Z,35.15
2018-07-05T04:55:57.492Z,35.48
2018-07-05T04:57:11.817Z,35.81
2018-07-05T04:58:26.871Z,36.08
2018-07-05T04:59:42.078Z,36.36
2018-07-05T05:00:57.213Z,36.65
2018-07-05T05:02:12.240Z,36.97
2018-07-05T05:03:27.125Z,37.3
2018-07-05T05:04:41.384Z,37.66
2018-07-05T05:05:55.731Z,37.98
2018-07-05T05:07:10.565Z,38.31
2018-07-05T05:08:25.112Z,38.58
2018-07-05T05:09:40.261Z,38.86
2018-07-05T05:10:54.752Z,39.13
2018-07-05T05:12:09.749Z,39.42
2018-07-05T05:13:24.023Z,39.66
2018-07-05T05:14:38.770Z,39.89
2018-07-05T05:15:53.152Z,40.12
2018-07-05T05:17:07.853Z,40.29
2018-07-05T05:18:22.584Z,40.49
2018-07-05T05:19:36.547Z,40.72
2018-07-05T05:20:51.145Z,40.95
2018-07-05T05:22:05.924Z,41.11
2018-07-05T05:23:19.943Z,41.19
2018-07-05T05:24:34.443Z,41.26
2018-07-05T05:25:49.170Z,41.45
2018-07-05T05:27:03.688Z,41.63
2018-07-05T05:28:18.515Z,41.3
2018-07-05T05:29:32.497Z,41.59
2018-07-05T05:30:47.000Z,41.39
2018-07-05T05:32:01.469Z,41.51
2018-07-05T05:33:15.446Z,41.72
2018-07-05T05:34:30.764Z,41.83
2018-07-05T05:35:45.829Z,41.6
2018-07-05T05:37:00.082Z,41.63
2018-07-05T05:38:14.308Z,41.81
2018-07-05T05:39:29.249Z,41.61
2018-07-05T05:40:44.469Z,41.25
2018-07-05T05:41:59.409Z,40.71
2018-07-05T05:43:14.164Z,39.34
2018-07-05T05:44:28.675Z,37.61
2018-07-05T05:45:43.228Z,36.34
2018-07-05T05:46:57.698Z,35.31
2018-07-05T05:48:12.476Z,34.48
2018-07-05T05:49:27.387Z,33.76
2018-07-05T05:50:42.395Z,33.14
2018-07-05T05:51:57.295Z,32.59
2018-07-05T05:53:12.614Z,32.09
2018-07-05T05:54:27.647Z,31.64
2018-07-05T05:55:42.222Z,31.23
2018-07-05T05:56:56.806Z,30.88
2018-07-05T05:58:11.045Z,30.58
2018-07-05T05:59:25.573Z,30.32
2018-07-05T06:00:40.079Z,30.09
2018-07-05T06:01:54.664Z,29.88
2018-07-05T06:03:09.823Z,29.68
2018-07-05T06:04:24.341Z,29.47
2018-07-05T06:05:38.591Z,29.28
2018-07-05T06:06:53.430Z,29.13
2018-07-05T06:08:08.234Z,29.03
2018-07-05T06:09:23.145Z,28.94
2018-07-05T06:10:37.331Z,28.84
2018-07-05T06:11:52.429Z,28.73
2018-07-05T06:13:07.172Z,28.58
2018-07-05T06:14:22.174Z,28.4
2018-07-05T06:15:36.932Z,28.27
2018-07-05T06:16:51.652Z,28.13
2018-07-05T06:18:05.668Z,28.04
2018-07-05T06:19:20.169Z,27.93
2018-07-05T06:20:34.676Z,27.87
2018-07-05T06:21:49.432Z,27.78
2018-07-05T06:23:04.768Z,27.71
2018-07-05T06:24:19.293Z,27.66
2018-07-05T06:25:34.076Z,27.64
2018-07-05T06:26:48.973Z,27.59
2018-07-05T06:28:03.500Z,27.58
2018-07-05T06:29:17.994Z,27.58
2018-07-05T06:30:32.527Z,27.57
2018-07-05T06:31:47.262Z,27.52
2018-07-05T06:33:02.078Z,27.48
2018-07-05T06:34:17.561Z,27.49
2018-07-05T06:35:38.136Z,27.5
2018-07-05T06:36:52.834Z,27.53
2018-07-05T06:38:07.587Z,27.56
2018-07-05T06:39:21.630Z,27.57
2018-07-05T06:40:36.826Z,27.55
2018-07-05T06:41:51.597Z,27.54
2018-07-05T06:43:06.538Z,27.55
2018-07-05T06:44:21.019Z,27.56
2018-07-05T06:45:35.523Z,27.57
2018-07-05T06:46:50.506Z,27.57
2018-07-05T06:48:05.548Z,27.6
2018-07-05T06:49:20.142Z,27.64
2018-07-05T06:50:35.278Z,27.69
2018-07-05T06:51:49.782Z,27.74
2018-07-05T06:53:05.053Z,27.77
2018-07-05T06:54:20.246Z,27.8
2018-07-05T06:55:35.295Z,27.78
2018-07-05T06:56:49.275Z,27.79
2018-07-05T06:58:03.817Z,27.81
2018-07-05T06:59:19.404Z,27.81
2018-07-05T07:00:33.856Z,27.79
2018-07-05T07:01:48.082Z,27.76
2018-07-05T07:03:02.820Z,27.74
2018-07-05T07:04:17.612Z,27.7
2018-07-05T07:05:32.527Z,27.6
2018-07-05T07:06:47.361Z,27.5
2018-07-05T07:08:01.838Z,27.43
2018-07-05T07:09:16.874Z,27.39
